Time;durP1;ratioP1;P1;durP2;ratioP2;P2;SDS_P1;SDS_P2;PMS_P1;PMS_P2;Temp;Humidity;BMP_temperature;BMP_pressure;BME280_temperature;BME280_humidity;BME280_pressure;Samples;Min_cycle;Max_cycle;Signal;HPM_P1;HPM_P2
2022/01/05 00:02:23;;;;;;;6.85;1.70;;;5.60;97.30;;;;;;6156440;23;20092;-87
2022/01/05 00:04:48;;;;;;;4.72;1.55;;;5.60;97.30;;;;;;6130051;23;20092;-88
2022/01/05 00:07:17;;;;;;;5.88;1.75;;;5.60;97.30;;;;;;6155051;23;20052;-88
2022/01/05 00:09:48;;;;;;;7.53;1.55;;;5.60;97.30;;;;;;6155426;23;20423;-89
2022/01/05 00:12:14;;;;;;;8.35;2.42;;;5.60;97.30;;;;;;6155398;23;20344;-87
2022/01/05 00:14:43;;;;;;;6.25;1.85;;;5.50;97.20;;;;;;6154827;23;20003;-87
2022/01/05 00:17:11;;;;;;;6.00;1.90;;;5.50;97.30;;;;;;6155433;23;20462;-87
2022/01/05 00:19:39;;;;;;;8.32;1.58;;;5.50;97.30;;;;;;6154257;23;20108;-87
2022/01/05 00:22:06;;;;;;;7.95;1.98;;;5.40;97.30;;;;;;6154969;23;20009;-87
2022/01/05 00:24:35;;;;;;;9.43;2.17;;;5.40;97.40;;;;;;6156474;23;20014;-87
2022/01/05 00:27:05;;;;;;;7.68;2.28;;;5.40;97.40;;;;;;6155409;23;20444;-87
2022/01/05 00:29:34;;;;;;;4.80;1.63;;;5.40;97.40;;;;;;6155212;23;20104;-87
2022/01/05 00:32:16;;;;;;;8.02;1.70;;;5.40;97.30;;;;;;6155963;23;20328;-87
2022/01/05 00:34:45;;;;;;;9.52;2.38;;;5.40;97.30;;;;;;6156138;23;20132;-88
2022/01/05 00:37:13;;;;;;;8.73;2.30;;;5.40;97.20;;;;;;6155551;23;20002;-88
2022/01/05 00:39:42;;;;;;;8.95;2.20;;;5.30;97.20;;;;;;6154748;23;20048;-87
2022/01/05 00:42:15;;;;;;;14.00;2.30;;;5.30;97.20;;;;;;6155171;23;20367;-88
2022/01/05 00:44:43;;;;;;;7.60;1.70;;;5.30;97.30;;;;;;6155676;23;20486;-88
2022/01/05 00:47:11;;;;;;;9.93;1.95;;;5.20;97.30;;;;;;6131144;23;20006;-88
2022/01/05 00:49:37;;;;;;;8.35;2.20;;;5.20;97.30;;;;;;6155723;23;19998;-87
2022/01/05 00:52:03;;;;;;;5.43;1.67;;;5.20;97.30;;;;;;6155327;23;20313;-88
2022/01/05 00:54:37;;;;;;;6.90;1.83;;;5.20;97.30;;;;;;6155932;23;20001;-88
2022/01/05 00:57:05;;;;;;;7.68;1.98;;;5.10;97.20;;;;;;6162097;23;20005;-87
2022/01/05 00:59:34;;;;;;;10.10;2.17;;;5.10;97.10;;;;;;6182592;23;20054;-88
2022/01/05 01:02:02;;;;;;;11.82;2.10;;;5.10;97.00;;;;;;6183291;23;20001;-87
2022/01/05 01:04:27;;;;;;;8.73;2.67;;;5.10;97.00;;;;;;6181599;23;20006;-86
2022/01/05 01:06:53;;;;;;;6.43;1.88;;;5.10;97.00;;;;;;6167619;23;20028;-87
2022/01/05 01:09:19;;;;;;;7.28;1.60;;;5.10;97.00;;;;;;6131321;23;20328;-86
2022/01/05 01:11:48;;;;;;;5.80;1.73;;;5.00;97.00;;;;;;6130662;23;20022;-87
2022/01/05 01:14:14;;;;;;;6.50;1.70;;;5.00;97.10;;;;;;6156297;23;20305;-87
2022/01/05 01:16:40;;;;;;;6.50;1.80;;;5.00;97.10;;;;;;6156402;23;19997;-89
2022/01/05 01:19:08;;;;;;;8.05;2.20;;;5.00;97.10;;;;;;6159439;23;20006;-87
2022/01/05 01:21:34;;;;;;;9.27;1.58;;;5.00;97.10;;;;;;6158101;23;20072;-88
2022/01/05 01:24:00;;;;;;;10.75;2.25;;;5.00;97.10;;;;;;6158386;23;20006;-87
2022/01/05 01:26:33;;;;;;;7.80;1.88;;;5.00;97.00;;;;;;6158202;23;20005;-87
2022/01/05 01:29:03;;;;;;;7.63;1.67;;;5.00;96.90;;;;;;6158272;23;20380;-87
2022/01/05 01:31:38;;;;;;;9.25;2.25;;;4.90;96.70;;;;;;6159238;23;20324;-87
2022/01/05 01:34:06;;;;;;;9.40;2.10;;;4.90;96.80;;;;;;6133822;23;20001;-88
2022/01/05 01:36:35;;;;;;;7.97;2.13;;;4.90;96.80;;;;;;6157791;23;20008;-87
2022/01/05 01:39:05;;;;;;;8.45;1.80;;;4.90;96.80;;;;;;6134140;23;20006;-87
2022/01/05 01:41:40;;;;;;;;;;;;;;;;;;;;;
2022/01/05 01:44:09;;;;;;;11.50;2.35;;;4.90;96.90;;;;;;6159833;23;20069;-87
2022/01/05 01:46:37;;;;;;;11.65;1.83;;;4.90;96.90;;;;;;6157986;23;20004;-88
2022/01/05 01:49:10;;;;;;;10.05;2.53;;;4.90;96.90;;;;;;6159883;23;20363;-88
2022/01/05 01:51:36;;;;;;;8.68;2.17;;;5.00;97.00;;;;;;6157866;23;20084;-87
2022/01/05 01:54:10;;;;;;;7.28;2.30;;;5.00;97.00;;;;;;6133800;23;20057;-87
2022/01/05 01:56:42;;;;;;;12.15;2.72;;;5.00;97.00;;;;;;6157193;23;20012;-87
2022/01/05 01:59:08;;;;;;;8.52;2.13;;;4.90;97.00;;;;;;6159465;23;20005;-88
2022/01/05 02:01:36;;;;;;;9.73;2.13;;;4.90;97.00;;;;;;6132849;23;20013;-88
2022/01/05 02:04:04;;;;;;;12.38;2.40;;;4.90;97.00;;;;;;6133802;23;20393;-88
2022/01/05 02:06:31;;;;;;;8.02;2.22;;;4.90;96.90;;;;;;6133133;23;20029;-87
2022/01/05 02:09:00;;;;;;;7.80;1.98;;;4.90;96.90;;;;;;6158117;23;19998;-87
2022/01/05 02:11:26;;;;;;;9.43;2.10;;;4.80;96.70;;;;;;6158180;23;20017;-87
2022/01/05 02:14:04;;;;;;;9.80;2.40;;;4.90;97.10;;;;;;6157925;23;20033;-88
2022/01/05 02:16:32;;;;;;;4.53;1.52;;;4.80;96.80;;;;;;6159839;23;20006;-88
2022/01/05 02:19:19;;;;;;;10.07;2.35;;;4.80;96.80;;;;;;6158882;23;20380;-87
2022/01/05 02:21:50;;;;;;;9.68;2.33;;;4.80;96.80;;;;;;6160607;23;20009;-88
2022/01/05 02:24:18;;;;;;;7.77;2.63;;;4.80;96.80;;;;;;6164917;23;20001;-88
2022/01/05 02:26:44;;;;;;;11.57;2.42;;;4.80;96.80;;;;;;6186013;23;20234;-88
2022/01/05 02:29:15;;;;;;;12.18;3.25;;;4.80;96.80;;;;;;6183490;23;20021;-87
2022/01/05 02:31:46;;;;;;;10.95;2.55;;;4.80;96.80;;;;;;6183402;23;20009;-88
2022/01/05 02:34:25;;;;;;;13.90;2.70;;;4.80;96.80;;;;;;6170365;23;20379;-87
2022/01/05 02:36:51;;;;;;;10.35;2.70;;;4.70;96.70;;;;;;6156658;23;20033;-88
2022/01/05 02:39:19;;;;;;;12.98;2.20;;;4.70;96.60;;;;;;6156864;23;20064;-88
2022/01/05 02:41:52;;;;;;;8.80;2.35;;;4.70;96.50;;;;;;6156040;23;20045;-88
2022/01/05 02:44:22;;;;;;;7.82;2.00;;;4.70;96.50;;;;;;6156513;23;20012;-88
2022/01/05 02:46:51;;;;;;;8.02;2.17;;;4.70;96.40;;;;;;6157445;23;19998;-88
2022/01/05 02:49:24;;;;;;;11.38;2.67;;;4.70;96.40;;;;;;6156290;23;20004;-88
2022/01/05 02:51:52;;;;;;;11.35;2.50;;;4.70;96.40;;;;;;6157696;23;20001;-88
2022/01/05 02:54:20;;;;;;;8.05;2.20;;;4.70;96.10;;;;;;6131294;23;20420;-87
2022/01/05 02:56:49;;;;;;;9.18;2.22;;;4.70;96.20;;;;;;6155953;23;19997;-87
2022/01/05 02:59:19;;;;;;;10.48;1.88;;;4.70;96.20;;;;;;6156552;23;20084;-88
2022/01/05 03:01:45;;;;;;;6.82;2.20;;;4.70;96.20;;;;;;6156158;23;20359;-88
2022/01/05 03:04:16;;;;;;;7.93;1.88;;;4.70;96.30;;;;;;6156458;23;20036;-87
2022/01/05 03:06:50;;;;;;;6.93;2.03;;;4.60;96.00;;;;;;6131954;23;20002;-89
2022/01/05 03:09:19;;;;;;;8.80;2.20;;;4.70;96.10;;;;;;6156583;23;20013;-89
2022/01/05 03:11:47;;;;;;;7.03;1.77;;;4.60;96.10;;;;;;6155314;23;20677;-89
2022/01/05 03:14:13;;;;;;;9.65;2.60;;;4.70;96.10;;;;;;6156684;23;20005;-89
2022/01/05 03:16:47;;;;;;;11.68;2.20;;;4.60;96.00;;;;;;6156934;23;20002;-87
2022/01/05 03:19:13;;;;;;;9.57;1.95;;;4.60;96.00;;;;;;6133235;23;20012;-89
2022/01/05 03:21:44;;;;;;;9.02;2.20;;;4.60;96.00;;;;;;6155750;23;20037;-87
2022/01/05 03:24:10;;;;;;;9.13;1.98;;;4.60;96.10;;;;;;6131870;23;20002;-88
2022/01/05 03:26:42;;;;;;;10.32;2.85;;;4.60;96.10;;;;;;6156075;23;20051;-88
2022/01/05 03:29:08;;;;;;;8.48;2.50;;;4.60;96.20;;;;;;6156360;23;20447;-88
2022/01/05 03:31:33;;;;;;;6.70;1.70;;;4.70;96.10;;;;;;6156326;23;20005;-88
2022/01/05 03:33:59;;;;;;;7.30;2.30;;;4.70;96.10;;;;;;6155824;23;20001;-87
2022/01/05 03:36:34;;;;;;;11.07;1.98;;;4.70;95.90;;;;;;6156496;23;20025;-88
2022/01/05 03:39:23;;;;;;;8.23;1.83;;;4.60;95.70;;;;;;6156215;23;20009;-88
2022/01/05 03:41:56;;;;;;;11.35;3.50;;;4.60;96.10;;;;;;6156130;23;20096;-88
2022/01/05 03:44:23;;;;;;;12.73;1.90;;;4.60;95.90;;;;;;6156477;23;20019;-88
2022/01/05 03:46:58;;;;;;;8.30;2.10;;;4.60;96.00;;;;;;6156738;23;20008;-88
2022/01/05 03:49:27;;;;;;;11.13;3.03;;;4.60;96.00;;;;;;6157681;23;20021;-88
2022/01/05 03:51:55;;;;;;;9.50;2.90;;;4.60;95.90;;;;;;6174484;23;20024;-88
2022/01/05 03:54:23;;;;;;;6.15;1.75;;;4.50;95.70;;;;;;6183135;23;20001;-87
2022/01/05 03:56:51;;;;;;;12.13;2.63;;;4.50;95.80;;;;;;6182911;23;19992;-86
2022/01/05 03:59:21;;;;;;;9.02;2.20;;;4.50;95.80;;;;;;6179291;23;20080;-88
2022/01/05 04:01:48;;;;;;;7.43;2.50;;;4.50;95.80;;;;;;6132624;23;20013;-88
2022/01/05 04:04:26;;;;;;;;;;;;;;;;;;;;;
2022/01/05 04:06:55;;;;;;;9.35;2.20;;;4.50;95.90;;;;;;6156779;23;20080;-89
2022/01/05 04:09:21;;;;;;;8.98;2.08;;;4.50;95.80;;;;;;6155875;23;20092;-88
2022/01/05 04:11:47;;;;;;;7.85;2.20;;;4.40;95.90;;;;;;6130000;23;20473;-87
2022/01/05 04:14:23;;;;;;;9.35;2.58;;;4.50;95.80;;;;;;6155541;23;20096;-88
2022/01/05 04:16:54;;;;;;;9.35;2.38;;;4.40;95.80;;;;;;6155098;23;20002;-88
2022/01/05 04:19:20;;;;;;;10.77;2.10;;;4.40;95.80;;;;;;6155400;23;20009;-88
2022/01/05 04:21:46;;;;;;;9.38;3.10;;;4.40;95.80;;;;;;6154886;23;20010;-88
2022/01/05 04:24:12;;;;;;;10.27;2.17;;;4.40;95.90;;;;;;6155220;23;20419;-88
2022/01/05 04:26:38;;;;;;;11.65;2.55;;;4.40;96.00;;;;;;6155610;23;19997;-87
2022/01/05 04:29:16;;;;;;;7.80;2.25;;;4.40;95.90;;;;;;6155332;23;20002;-88
2022/01/05 04:31:45;;;;;;;10.65;2.40;;;4.40;95.90;;;;;;6133074;23;20189;-88
2022/01/05 04:34:16;;;;;;;7.78;2.15;;;4.40;95.80;;;;;;6155033;23;19997;-88
2022/01/05 04:36:52;;;;;;;;;;;;;;;;;;;;;
2022/01/05 04:39:29;;;;;;;11.13;2.20;;;4.40;95.90;;;;;;6156922;23;20084;-87
2022/01/05 04:41:55;;;;;;;10.13;2.35;;;4.40;96.00;;;;;;6132291;23;20017;-88
2022/01/05 04:44:23;;;;;;;12.57;3.05;;;4.40;95.90;;;;;;6156708;23;20001;-88
2022/01/05 04:46:58;;;;;;;10.25;2.55;;;4.40;96.00;;;;;;6154798;23;20006;-88
2022/01/05 04:49:27;;;;;;;12.10;2.40;;;4.30;95.90;;;;;;6155790;23;20009;-88
2022/01/05 04:52:09;;;;;;;8.55;2.67;;;4.30;96.00;;;;;;6154972;23;20010;-88
2022/01/05 04:54:35;;;;;;;7.15;2.30;;;4.30;96.10;;;;;;6155012;23;20361;-88
2022/01/05 04:57:06;;;;;;;9.88;2.83;;;4.40;96.20;;;;;;6130319;23;20037;-88
2022/01/05 04:59:37;;;;;;;8.07;2.05;;;4.30;96.10;;;;;;6155455;23;20001;-89
2022/01/05 05:02:11;;;;;;;13.23;2.67;;;4.40;96.20;;;;;;6155523;23;20020;-87
2022/01/05 05:04:39;;;;;;;10.68;2.75;;;4.40;96.20;;;;;;6132510;23;20087;-88
2022/01/05 05:07:09;;;;;;;8.45;2.33;;;4.40;96.20;;;;;;6154910;23;20002;-88
2022/01/05 05:09:34;;;;;;;10.02;2.20;;;4.40;96.30;;;;;;6155886;23;19998;-88
2022/01/05 05:12:00;;;;;;;9.50;2.60;;;4.40;96.40;;;;;;6155969;23;20051;-88
2022/01/05 05:14:26;;;;;;;8.90;2.40;;;4.50;96.40;;;;;;6156738;23;20029;-88
2022/01/05 05:16:55;;;;;;;10.63;2.53;;;4.50;96.40;;;;;;6167729;23;20002;-86
2022/01/05 05:19:26;;;;;;;8.63;2.28;;;4.50;96.40;;;;;;6182557;23;19986;-88
2022/01/05 05:21:54;;;;;;;9.98;2.80;;;4.50;96.40;;;;;;6181985;23;20018;-89
2022/01/05 05:24:20;;;;;;;11.77;3.05;;;4.50;96.40;;;;;;6182251;23;20002;-87
2022/01/05 05:26:46;;;;;;;9.20;3.17;;;4.50;96.40;;;;;;6164328;23;20093;-87
2022/01/05 05:29:15;;;;;;;15.32;2.90;;;4.50;96.40;;;;;;6155561;23;20010;-88
2022/01/05 05:31:43;;;;;;;10.30;2.63;;;4.60;96.40;;;;;;6155536;23;20006;-88
2022/01/05 05:34:09;;;;;;;10.77;2.40;;;4.50;96.50;;;;;;6130641;23;20508;-88
2022/01/05 05:36:39;;;;;;;15.43;3.03;;;4.50;96.60;;;;;;6154529;23;20033;-88
2022/01/05 05:39:10;;;;;;;10.87;2.70;;;4.50;96.60;;;;;;6154858;23;20009;-87
2022/01/05 05:41:37;;;;;;;;;;;4.50;96.60;;;;;;6155726;23;20450;-87
2022/01/05 05:44:03;;;;;;;13.43;3.20;;;4.50;96.70;;;;;;6156033;23;19951;-88
2022/01/05 05:46:47;;;;;;;13.38;2.40;;;4.50;96.70;;;;;;6154340;23;20013;-87
2022/01/05 05:49:18;;;;;;;9.60;2.72;;;4.50;96.70;;;;;;6154662;23;20002;-88
2022/01/05 05:51:46;;;;;;;11.55;2.53;;;4.60;96.70;;;;;;6154992;23;20009;-87
2022/01/05 05:54:12;;;;;;;10.05;2.67;;;4.60;96.80;;;;;;6154064;23;20336;-87
2022/01/05 05:56:40;;;;;;;16.17;3.45;;;4.60;96.80;;;;;;6154237;23;19998;-87
2022/01/05 05:59:09;;;;;;;11.07;2.83;;;4.60;96.80;;;;;;6155095;23;20033;-88
2022/01/05 06:01:37;;;;;;;12.95;3.40;;;4.60;96.90;;;;;;6155082;23;20010;-88
2022/01/05 06:04:20;;;;;;;13.38;2.80;;;4.60;96.90;;;;;;6156430;23;20012;-89
2022/01/05 06:06:50;;;;;;;12.80;2.58;;;4.60;96.90;;;;;;6156702;23;20006;-91
2022/01/05 06:09:16;;;;;;;10.32;2.72;;;4.70;96.90;;;;;;6157577;23;20002;-89
2022/01/05 06:12:06;;;;;;;10.70;2.67;;;4.70;97.00;;;;;;5088984;27;20464;-87
2022/01/05 06:14:31;;;;;;;10.77;2.90;;;4.70;97.00;;;;;;5074007;28;20040;-86
2022/01/05 06:17:03;;;;;;;14.82;3.08;;;4.70;97.00;;;;;;5084237;28;20021;-88
2022/01/05 06:19:32;;;;;;;14.38;3.13;;;4.70;97.10;;;;;;5050678;28;20476;-87
2022/01/05 06:22:01;;;;;;;11.73;3.30;;;4.80;97.10;;;;;;5071470;28;20023;-89
2022/01/05 06:24:35;;;;;;;9.85;2.60;;;4.80;97.10;;;;;;5094507;28;20464;-89
2022/01/05 06:27:12;;;;;;;10.70;2.60;;;4.80;97.10;;;;;;5076811;28;20055;-88
2022/01/05 06:29:40;;;;;;;17.85;2.90;;;4.90;97.10;;;;;;5103208;28;20029;-87
2022/01/05 06:32:09;;;;;;;12.48;2.67;;;4.80;97.00;;;;;;5069880;28;20040;-90
2022/01/05 06:34:43;;;;;;;11.95;3.03;;;4.90;97.00;;;;;;5106208;28;20028;-92
2022/01/05 06:37:21;;;;;;;;;;;;;;;;;;;;;
2022/01/05 06:39:47;;;;;;;13.52;3.30;;;4.90;97.00;;;;;;5090740;28;20036;-88
2022/01/05 06:42:18;;;;;;;13.73;2.80;;;4.90;97.00;;;;;;5090379;28;20111;-88
2022/01/05 06:44:50;;;;;;;11.13;2.65;;;4.90;97.00;;;;;;5107745;28;20016;-88
2022/01/05 06:47:18;;;;;;;16.05;2.90;;;5.00;97.10;;;;;;5114683;28;20083;-88
2022/01/05 06:49:53;;;;;;;13.07;2.75;;;5.00;97.00;;;;;;5105923;28;20005;-89
2022/01/05 06:52:27;;;;;;;15.50;2.90;;;5.00;97.10;;;;;;5109039;28;20032;-87
2022/01/05 06:54:53;;;;;;;11.52;3.15;;;5.00;97.10;;;;;;5099145;28;20055;-87
2022/01/05 06:57:19;;;;;;;12.73;3.10;;;5.00;97.00;;;;;;5052343;28;20105;-86
2022/01/05 06:59:48;;;;;;;11.57;3.10;;;5.10;97.10;;;;;;5071198;28;20087;-87
2022/01/05 07:02:16;;;;;;;14.77;3.50;;;5.10;97.10;;;;;;5070174;28;20021;-88
2022/01/05 07:04:42;;;;;;;9.48;2.70;;;5.10;97.10;;;;;;5087378;28;20021;-88
2022/01/05 07:07:18;;;;;;;8.27;2.30;;;5.10;97.20;;;;;;5089250;28;20069;-89
2022/01/05 07:09:49;;;;;;;10.13;2.83;;;5.20;97.30;;;;;;5074788;28;20020;-89
2022/01/05 07:12:48;;;;;;;12.52;2.88;;;5.20;97.30;;;;;;5103272;28;20028;-88
2022/01/05 07:15:31;;;;;;;12.35;3.03;;;5.20;97.30;;;;;;5086602;28;20032;-88
2022/01/05 07:17:58;;;;;;;13.38;2.85;;;5.20;97.30;;;;;;5081422;28;20016;-88
2022/01/05 07:20:45;;;;;;;12.65;2.67;;;5.30;97.30;;;;;;5080297;28;20028;-87
2022/01/05 07:23:21;;;;;;;10.20;3.00;;;5.30;97.20;;;;;;5046936;28;20027;-88
2022/01/05 07:25:47;;;;;;;10.07;2.40;;;5.30;97.20;;;;;;5074450;28;20031;-87
2022/01/05 07:28:18;;;;;;;13.15;2.80;;;5.30;97.20;;;;;;5062507;28;20440;-87
2022/01/05 07:30:56;;;;;;;10.23;3.00;;;5.30;97.20;;;;;;5063927;28;20024;-86
2022/01/05 07:33:29;;;;;;;13.95;3.33;;;5.30;97.20;;;;;;5061006;28;20119;-87
2022/01/05 07:36:19;;;;;;;12.18;3.17;;;5.40;97.20;;;;;;5038400;28;20029;-88
2022/01/05 07:38:46;;;;;;;12.80;2.90;;;5.40;97.20;;;;;;5060838;28;20025;-88
2022/01/05 07:41:14;;;;;;;11.00;2.40;;;5.30;97.10;;;;;;5056133;28;20076;-87
2022/01/05 07:43:42;;;;;;;9.68;2.63;;;5.40;97.10;;;;;;5047165;28;20053;-88
2022/01/05 07:46:08;;;;;;;13.60;2.60;;;5.40;97.00;;;;;;5072493;28;20532;-89
2022/01/05 07:48:34;;;;;;;8.88;2.20;;;5.40;97.00;;;;;;5069374;28;20112;-87
2022/01/05 07:51:07;;;;;;;11.18;3.22;;;5.40;97.00;;;;;;5053597;28;20044;-88
2022/01/05 07:53:35;;;;;;;13.38;3.55;;;5.40;97.00;;;;;;5037216;28;20028;-89
2022/01/05 07:56:05;;;;;;;8.77;2.60;;;5.40;96.90;;;;;;5054560;28;20057;-88
2022/01/05 07:58:47;;;;;;;18.33;3.28;;;5.40;96.80;;;;;;5055364;28;20040;-89
2022/01/05 08:01:18;;;;;;;15.52;3.33;;;5.40;96.90;;;;;;5055274;28;20388;-89
2022/01/05 08:03:47;;;;;;;12.88;3.15;;;5.50;96.90;;;;;;5039453;28;20376;-89
2022/01/05 08:06:17;;;;;;;11.52;2.80;;;5.50;96.90;;;;;;5056314;28;20025;-90
2022/01/05 08:08:47;;;;;;;15.38;3.47;;;5.50;96.90;;;;;;5056566;28;20021;-89
2022/01/05 08:11:19;;;;;;;14.02;2.97;;;5.60;96.80;;;;;;5073566;28;20041;-89
2022/01/05 08:13:53;;;;;;;12.13;2.78;;;5.60;96.80;;;;;;5079212;28;20020;-89
2022/01/05 08:16:24;;;;;;;11.30;2.97;;;5.60;96.80;;;;;;5079069;28;20005;-90
2022/01/05 08:18:50;;;;;;;12.93;2.70;;;5.60;96.80;;;;;;5075562;28;20033;-90
2022/01/05 08:21:19;;;;;;;19.70;3.47;;;5.60;96.80;;;;;;5054844;28;20047;-88
2022/01/05 08:23:50;;;;;;;12.55;3.67;;;5.60;97.00;;;;;;5055225;28;20029;-88
2022/01/05 08:26:15;;;;;;;16.65;3.13;;;5.60;97.10;;;;;;5054822;28;20097;-88
2022/01/05 08:28:41;;;;;;;10.95;2.80;;;5.70;97.10;;;;;;5054119;28;20116;-88
2022/01/05 08:31:07;;;;;;;16.63;3.33;;;5.70;97.20;;;;;;5053835;28;20039;-86
2022/01/05 08:33:36;;;;;;;14.40;3.22;;;5.70;97.40;;;;;;5052853;28;20022;-86
2022/01/05 08:36:09;;;;;;;14.75;2.90;;;5.70;97.40;;;;;;5055091;28;20037;-91
2022/01/05 08:38:35;;;;;;;11.95;3.42;;;5.70;97.50;;;;;;5054537;28;20047;-88
2022/01/05 08:41:08;;;;;;;15.70;2.90;;;5.60;97.60;;;;;;5054091;28;20199;-91
2022/01/05 08:44:09;;;;;;;;;;;;;;;;;;;;;
2022/01/05 08:46:41;;;;;;;17.83;4.78;;;5.70;97.90;;;;;;5051883;28;20070;-90
2022/01/05 08:49:15;;;;;;;15.45;4.13;;;5.60;98.10;;;;;;5054112;28;20047;-90
2022/01/05 08:52:07;;;;;;;19.55;4.15;;;5.70;98.40;;;;;;5054090;28;20029;-90
2022/01/05 08:57:43;;;;;;;14.00;3.38;;;5.60;98.70;;;;;;5054401;28;20021;-91
2022/01/05 09:00:19;;;;;;;12.48;3.60;;;5.60;98.80;;;;;;5054356;28;20068;-91
2022/01/05 09:03:00;;;;;;;10.57;2.85;;;5.60;98.90;;;;;;5037874;28;20033;-90
2022/01/05 09:06:07;;;;;;;;;;;;;;;;;;;;;
2022/01/05 09:08:42;;;;;;;12.30;3.08;;;5.60;99.00;;;;;;5069461;28;20036;-91
2022/01/05 09:11:27;;;;;;;15.30;3.70;;;5.60;99.00;;;;;;5051752;28;20108;-92
2022/01/05 09:14:08;;;;;;;17.55;5.78;;;5.60;99.10;;;;;;5038328;28;20033;-91
2022/01/05 09:16:42;;;;;;;17.73;4.50;;;5.60;99.30;;;;;;5053922;28;20510;-91
2022/01/05 09:19:33;;;;;;;;;;;;;;;;;;;;;
2022/01/05 09:22:03;;;;;;;11.23;2.90;;;5.60;99.50;;;;;;5054390;28;20032;-88
2022/01/05 09:24:32;;;;;;;11.45;3.13;;;5.60;99.60;;;;;;5052297;28;20025;-88
2022/01/05 09:27:03;;;;;;;13.52;2.88;;;5.60;99.70;;;;;;5052715;28;20029;-89
2022/01/05 09:29:35;;;;;;;11.35;3.40;;;5.60;99.80;;;;;;5054060;28;20104;-89
2022/01/05 09:32:05;;;;;;;11.63;3.15;;;5.60;99.90;;;;;;5053886;28;20056;-88
2022/01/05 09:34:31;;;;;;;9.05;3.17;;;5.60;99.90;;;;;;5058837;28;20025;-88
2022/01/05 09:37:06;;;;;;;10.75;2.67;;;5.60;99.90;;;;;;5062061;28;20009;-89
2022/01/05 09:42:24;;;;;;;18.67;3.60;;;5.70;99.90;;;;;;5074747;28;20016;-89
2022/01/05 09:44:52;;;;;;;16.13;4.10;;;5.70;99.90;;;;;;5074930;28;20029;-89
2022/01/05 09:47:44;;;;;;;12.05;3.70;;;5.60;99.90;;;;;;5056091;28;20017;-87
2022/01/05 09:50:15;;;;;;;12.23;3.00;;;5.70;99.90;;;;;;5052402;28;20116;-88
2022/01/05 09:52:46;;;;;;;13.27;3.38;;;5.70;99.90;;;;;;5054339;28;20029;-88
2022/01/05 09:55:13;;;;;;;16.77;3.65;;;5.70;99.90;;;;;;5052071;28;20473;-89
2022/01/05 09:57:44;;;;;;;13.43;3.50;;;5.80;99.90;;;;;;5052387;28;20119;-88
2022/01/05 10:00:13;;;;;;;13.13;3.28;;;5.80;99.90;;;;;;5052395;28;20383;-89
2022/01/05 10:02:40;;;;;;;10.68;3.35;;;5.80;99.90;;;;;;5051910;28;20384;-88
2022/01/05 10:05:17;;;;;;;18.23;4.10;;;5.80;99.90;;;;;;5051838;28;21710;-88
2022/01/05 10:07:49;;;;;;;13.70;2.83;;;5.70;99.90;;;;;;5051442;28;20456;-88
2022/01/05 10:10:19;;;;;;;15.82;4.05;;;5.80;99.90;;;;;;5051577;28;20032;-89
2022/01/05 10:12:51;;;;;;;13.45;3.30;;;5.80;99.90;;;;;;5051308;28;20053;-89
2022/01/05 10:15:19;;;;;;;13.48;3.60;;;5.80;99.90;;;;;;5052524;28;20100;-88
2022/01/05 10:17:49;;;;;;;13.77;2.80;;;5.80;99.90;;;;;;5051710;28;20341;-88
2022/01/05 10:20:20;;;;;;;13.30;3.72;;;5.80;99.90;;;;;;5052039;28;20033;-88
2022/01/05 10:22:46;;;;;;;15.05;3.95;;;5.80;99.90;;;;;;5051284;28;20108;-89
2022/01/05 10:25:20;;;;;;;17.20;3.70;;;5.90;99.90;;;;;;5051748;28;20167;-88
2022/01/05 10:27:56;;;;;;;13.63;3.45;;;5.90;99.90;;;;;;5052292;28;20025;-87
2022/01/05 10:30:34;;;;;;;16.48;3.15;;;5.90;99.90;;;;;;5050992;28;20049;-89
2022/01/05 10:33:07;;;;;;;16.08;3.13;;;5.90;99.90;;;;;;5051606;28;20029;-89
2022/01/05 10:35:35;;;;;;;14.35;4.18;;;5.90;99.90;;;;;;5051272;28;20021;-89
2022/01/05 10:38:07;;;;;;;22.20;4.53;;;6.00;99.90;;;;;;5051320;28;20029;-89
2022/01/05 10:40:47;;;;;;;13.00;3.35;;;6.00;99.90;;;;;;5051601;28;20052;-87
2022/01/05 10:43:14;;;;;;;19.90;4.15;;;6.00;99.90;;;;;;5049410;28;20021;-89
2022/01/05 10:45:52;;;;;;;22.80;4.32;;;6.00;99.90;;;;;;5052041;28;20017;-89
2022/01/05 10:48:24;;;;;;;13.98;3.55;;;6.00;99.90;;;;;;5051768;28;20029;-90
2022/01/05 10:51:13;;;;;;;16.55;4.28;;;6.00;99.90;;;;;;5035870;28;20640;-89
2022/01/05 10:53:39;;;;;;;19.33;4.15;;;6.10;99.90;;;;;;5035691;28;20037;-87
2022/01/05 10:56:25;;;;;;;15.63;3.55;;;6.10;99.90;;;;;;5051961;28;20024;-88
2022/01/05 10:59:02;;;;;;;20.08;4.13;;;6.10;99.90;;;;;;5056021;28;20029;-88
2022/01/05 11:01:38;;;;;;;17.02;3.90;;;6.10;99.90;;;;;;5056661;28;20112;-88
2022/01/05 11:04:21;;;;;;;17.50;3.47;;;6.10;99.90;;;;;;5046249;28;20028;-88
2022/01/05 11:06:59;;;;;;;18.55;3.83;;;6.20;99.90;;;;;;5080100;28;20013;-87
2022/01/05 11:09:28;;;;;;;24.98;4.57;;;6.20;99.90;;;;;;5080328;28;20101;-88
2022/01/05 11:12:09;;;;;;;20.52;4.57;;;6.20;99.90;;;;;;5077505;28;20061;-88
2022/01/05 11:14:38;;;;;;;20.13;4.90;;;6.30;99.90;;;;;;5058954;28;20061;-88
2022/01/05 11:17:05;;;;;;;14.63;3.78;;;6.30;99.90;;;;;;5039334;28;20029;-88
2022/01/05 11:19:40;;;;;;;18.95;3.83;;;6.30;99.90;;;;;;5055078;28;20032;-87
2022/01/05 11:22:18;;;;;;;21.67;4.43;;;6.30;99.90;;;;;;5055178;28;20029;-88
2022/01/05 11:24:51;;;;;;;17.75;4.45;;;6.30;99.90;;;;;;5053864;28;20472;-87
2022/01/05 11:30:28;;;;;;;15.43;3.88;;;6.40;99.90;;;;;;5032359;28;20036;-88
2022/01/05 11:33:00;;;;;;;17.42;3.55;;;6.40;99.90;;;;;;5073198;28;20099;-89
2022/01/05 11:35:29;;;;;;;20.90;4.18;;;6.40;99.90;;;;;;5072254;28;20036;-89
2022/01/05 11:37:55;;;;;;;21.33;5.28;;;6.40;99.90;;;;;;5055400;28;20128;-89
2022/01/05 11:40:24;;;;;;;13.13;3.83;;;6.40;99.90;;;;;;5055000;28;20119;-88
2022/01/05 11:43:02;;;;;;;22.33;5.13;;;6.40;99.90;;;;;;5071935;28;20376;-88
2022/01/05 11:45:45;;;;;;;17.67;3.60;;;6.40;99.90;;;;;;5057274;28;20496;-89
2022/01/05 11:48:14;;;;;;;18.30;4.10;;;6.40;99.90;;;;;;5051767;28;20036;-87
2022/01/05 11:50:53;;;;;;;16.90;3.90;;;6.40;99.90;;;;;;5054625;28;20035;-87
2022/01/05 11:53:35;;;;;;;16.25;3.97;;;6.50;99.90;;;;;;5056309;28;20028;-86
2022/01/05 11:56:04;;;;;;;19.45;4.30;;;6.50;99.90;;;;;;5042260;28;20057;-87
2022/01/05 11:58:34;;;;;;;19.88;3.83;;;6.50;99.90;;;;;;5054313;28;20067;-86
2022/01/05 12:01:14;;;;;;;17.00;4.22;;;6.50;99.90;;;;;;5055249;28;20502;-87
2022/01/05 12:03:53;;;;;;;18.00;3.60;;;6.60;99.90;;;;;;5085727;28;20384;-85
2022/01/05 12:06:25;;;;;;;17.00;3.28;;;6.60;99.90;;;;;;5068602;28;20083;-91
2022/01/05 12:08:56;;;;;;;13.13;3.20;;;6.50;99.90;;;;;;5037380;28;20036;-86
2022/01/05 12:11:42;;;;;;;16.05;3.55;;;6.50;99.90;;;;;;5053594;28;20053;-88
2022/01/05 12:14:20;;;;;;;14.50;3.90;;;6.60;99.90;;;;;;5049388;28;20031;-87
2022/01/05 12:17:01;;;;;;;15.75;3.33;;;6.60;99.90;;;;;;5058885;28;20096;-87
2022/01/05 12:19:48;;;;;;;20.90;4.03;;;6.60;99.90;;;;;;5069477;28;20552;-86
2022/01/05 12:22:19;;;;;;;18.42;3.35;;;6.70;99.90;;;;;;5056281;28;20029;-86
2022/01/05 12:25:03;;;;;;;18.70;3.72;;;6.80;99.90;;;;;;5060719;28;20025;-87
2022/01/05 12:27:42;;;;;;;21.92;3.72;;;6.80;99.90;;;;;;5065448;28;20495;-87
2022/01/05 12:30:19;;;;;;;19.15;4.22;;;6.80;99.90;;;;;;5071090;28;20527;-85
2022/01/05 12:33:09;;;;;;;17.83;3.88;;;6.80;99.90;;;;;;5061965;28;20024;-88
2022/01/05 12:38:51;;;;;;;17.27;3.97;;;6.90;99.90;;;;;;5067983;28;20024;-87
2022/01/05 12:41:37;;;;;;;14.88;3.55;;;6.80;99.90;;;;;;5077869;28;20032;-86
2022/01/05 12:44:13;;;;;;;12.35;3.13;;;6.90;99.90;;;;;;5053122;28;20071;-85
2022/01/05 12:46:48;;;;;;;16.17;3.58;;;6.90;99.90;;;;;;5062030;28;20025;-86
2022/01/05 12:49:29;;;;;;;13.30;2.85;;;6.90;99.90;;;;;;5054045;28;20491;-86
2022/01/05 12:52:21;;;;;;;18.63;3.70;;;6.90;99.90;;;;;;5052471;28;20029;-86
2022/01/05 12:54:53;;;;;;;22.02;4.30;;;6.90;99.90;;;;;;5053785;28;20029;-86
2022/01/05 12:57:26;;;;;;;18.80;4.28;;;7.00;99.90;;;;;;5054175;28;20021;-86
2022/01/05 12:59:53;;;;;;;11.25;3.67;;;7.00;99.90;;;;;;5053462;28;20029;-85
2022/01/05 13:02:34;;;;;;;16.30;3.88;;;7.00;99.90;;;;;;5053315;28;20021;-86
2022/01/05 13:05:02;;;;;;;16.63;3.60;;;7.00;99.90;;;;;;5053431;28;20025;-85
2022/01/05 13:07:31;;;;;;;20.20;4.30;;;7.00;99.90;;;;;;5053235;28;20490;-86
2022/01/05 13:10:00;;;;;;;12.73;3.05;;;7.00;99.90;;;;;;5052685;28;20061;-86
2022/01/05 13:12:30;;;;;;;14.10;3.47;;;7.00;99.90;;;;;;5049426;28;20058;-85
2022/01/05 13:15:00;;;;;;;12.38;3.47;;;7.00;99.90;;;;;;5049501;28;20032;-87
2022/01/05 13:17:49;;;;;;;13.30;3.05;;;7.00;99.90;;;;;;5033462;28;20145;-87
2022/01/05 13:20:17;;;;;;;15.57;4.05;;;7.10;99.90;;;;;;5042041;28;20025;-87
2022/01/05 13:22:50;;;;;;;18.20;3.67;;;7.10;99.90;;;;;;5068820;28;20025;-88
2022/01/05 13:25:30;;;;;;;14.68;3.35;;;7.10;99.90;;;;;;5069787;28;20124;-86
2022/01/05 13:28:07;;;;;;;15.18;4.85;;;7.20;99.90;;;;;;5069213;28;20380;-87
2022/01/05 13:30:45;;;;;;;18.42;4.15;;;7.20;99.90;;;;;;5069562;28;20366;-86
2022/01/05 13:33:13;;;;;;;21.67;4.20;;;7.20;99.90;;;;;;5069074;28;20062;-86
2022/01/05 13:35:39;;;;;;;17.55;3.22;;;7.20;99.90;;;;;;5053011;28;20021;-86